Time;durP1;ratioP1;P1;durP2;ratioP2;P2;SDS_P1;SDS_P2;PMS_P1;PMS_P2;Temp;Humidity;BMP_temperature;BMP_pressure;BME280_temperature;BME280_humidity;BME280_pressure;Samples;Min_cycle;Max_cycle;Signal;HPM_P1;HPM_P2
2021/04/03 00:00:44;;;;;;;17.23;3.93;;;;;;;6.47;65.10;101100.59;5098821;28;20474;-61
2021/04/03 00:03:11;;;;;;;17.77;3.63;;;;;;;6.73;64.58;101102.47;5086197;28;20477;-62
2021/04/03 00:05:38;;;;;;;16.27;3.50;;;;;;;6.71;64.69;101103.53;5091793;28;20500;-63
2021/04/03 00:08:05;;;;;;;11.63;2.80;;;;;;;6.67;64.54;101097.56;5103521;28;20513;-61
2021/04/03 00:10:35;;;;;;;11.83;3.43;;;;;;;6.60;64.44;101097.09;5101371;28;20488;-59
2021/04/03 00:13:01;;;;;;;9.93;3.20;;;;;;;6.50;63.85;101093.28;5103634;28;20443;-63
2021/04/03 00:15:29;;;;;;;13.47;2.77;;;;;;;6.51;63.55;101089.69;5086902;28;20479;-60
2021/04/03 00:17:55;;;;;;;16.93;3.47;;;;;;;6.44;63.60;101098.09;5087620;28;20465;-62
2021/04/03 00:20:24;;;;;;;13.60;2.13;;;;;;;6.17;63.36;101091.72;5093809;28;20467;-61
2021/04/03 00:22:50;;;;;;;12.40;2.80;;;;;;;6.35;63.23;101089.78;5083515;28;20444;-60
2021/04/03 00:25:16;;;;;;;7.80;2.30;;;;;;;6.14;63.05;101091.03;5094200;28;20446;-63
2021/04/03 00:27:43;;;;;;;12.37;2.93;;;;;;;6.27;62.12;101089.38;5088353;28;20451;-60
2021/04/03 00:30:17;;;;;;;9.53;3.00;;;;;;;6.09;62.52;101075.38;5082605;28;20451;-61
2021/04/03 00:32:45;;;;;;;7.53;2.13;;;;;;;6.16;62.54;101075.88;5086663;28;20525;-60
2021/04/03 00:35:13;;;;;;;12.57;2.67;;;;;;;6.17;62.27;101072.28;5102831;28;20439;-62
2021/04/03 00:37:39;;;;;;;12.93;2.60;;;;;;;5.73;63.67;101083.66;5101099;28;20466;-62
2021/04/03 00:40:08;;;;;;;12.10;2.50;;;;;;;5.87;63.81;101082.84;5102522;28;20423;-64
2021/04/03 00:42:34;;;;;;;9.30;2.87;;;;;;;5.88;63.75;101080.13;5099136;28;20485;-60
2021/04/03 00:45:01;;;;;;;11.73;3.27;;;;;;;5.80;64.33;101090.34;5102060;28;20443;-62
2021/04/03 00:47:27;;;;;;;10.23;2.60;;;;;;;5.81;64.14;101086.72;5101720;28;20474;-61
2021/04/03 00:49:54;;;;;;;15.27;2.70;;;;;;;5.79;64.60;101081.50;5102948;28;20483;-60
2021/04/03 00:52:21;;;;;;;9.87;2.80;;;;;;;5.85;64.26;101080.31;5100465;28;20880;-60
2021/04/03 00:54:47;;;;;;;9.70;2.70;;;;;;;5.82;64.22;101077.84;5102736;28;20461;-60
2021/04/03 00:57:13;;;;;;;15.30;4.17;;;;;;;5.65;65.13;101073.50;5062068;28;20457;-60
2021/04/03 00:59:39;;;;;;;7.90;3.00;;;;;;;5.69;64.90;101066.22;5086413;28;20454;-60
2021/04/03 01:02:06;;;;;;;13.20;3.93;;;;;;;5.71;65.05;101072.28;5077666;28;20484;-61
2021/04/03 01:04:33;;;;;;;18.13;3.40;;;;;;;5.58;65.56;101074.81;5082947;28;20451;-62
2021/04/03 01:07:00;;;;;;;17.90;3.63;;;;;;;5.63;65.28;101070.09;5080456;28;20479;-61
2021/04/03 01:09:26;;;;;;;11.67;3.77;;;;;;;5.51;65.86;101070.81;5082658;28;20472;-60
2021/04/03 01:11:59;;;;;;;12.80;3.67;;;;;;;5.36;66.22;101083.13;5081858;28;20525;-61
2021/04/03 01:14:33;;;;;;;9.50;3.87;;;;;;;5.34;66.35;101069.09;5095573;28;20822;-62
2021/04/03 01:17:06;;;;;;;7.97;3.33;;;;;;;5.34;66.48;101077.06;5101196;28;20482;-61
2021/04/03 01:20:08;;;;;;;18.03;4.83;;;;;;;5.37;66.28;101074.25;5092601;28;20480;-60
2021/04/03 01:22:59;;;;;;;12.60;3.37;;;;;;;5.26;66.65;101085.47;5086256;28;20501;-61
2021/04/03 01:25:31;;;;;;;17.17;3.57;;;;;;;5.12;67.01;101072.97;5061133;28;20472;-60
2021/04/03 01:28:16;;;;;;;12.77;2.97;;;;;;;4.99;67.38;101074.56;5076591;28;20456;-60
2021/04/03 01:30:46;;;;;;;10.83;4.00;;;;;;;5.01;67.65;101073.53;5095343;28;20475;-60
2021/04/03 01:33:13;;;;;;;14.23;3.03;;;;;;;5.03;67.61;101076.09;5082643;28;20449;-60
2021/04/03 01:35:45;;;;;;;13.33;2.97;;;;;;;5.11;67.41;101084.50;5076486;28;20497;-60
2021/04/03 01:38:17;;;;;;;10.17;3.67;;;;;;;5.14;67.36;101079.03;5082962;28;20478;-61
2021/04/03 01:40:45;;;;;;;17.10;4.77;;;;;;;5.09;67.62;101081.94;5083462;28;20499;-61
2021/04/03 01:43:15;;;;;;;11.13;3.47;;;;;;;5.20;67.38;101081.31;5083203;28;20769;-61
2021/04/03 01:45:42;;;;;;;20.10;4.73;;;;;;;5.25;67.45;101081.94;5081688;28;20484;-60
2021/04/03 01:48:10;;;;;;;13.80;3.00;;;;;;;5.36;67.10;101076.00;5101901;28;20458;-60
2021/04/03 01:50:36;;;;;;;12.30;3.70;;;;;;;5.56;66.60;101087.31;5101244;28;20463;-61
2021/04/03 01:53:03;;;;;;;16.13;4.60;;;;;;;5.75;65.98;101079.16;5065478;28;20432;-60
2021/04/03 01:55:30;;;;;;;19.30;4.30;;;;;;;5.77;65.75;101083.41;5080994;28;20460;-60
2021/04/03 01:57:57;;;;;;;9.80;4.17;;;;;;;5.83;65.54;101082.19;5095294;28;20450;-60
2021/04/03 02:00:25;;;;;;;22.23;4.30;;;;;;;5.78;65.56;101085.13;5089065;28;21010;-61
2021/04/03 02:02:53;;;;;;;15.10;2.90;;;;;;;5.74;65.54;101077.44;5101081;28;20443;-60
2021/04/03 02:05:20;;;;;;;13.07;3.43;;;;;;;5.63;65.68;101078.91;5098170;28;20531;-60
2021/04/03 02:07:48;;;;;;;10.10;2.83;;;;;;;5.59;65.61;101085.34;5073490;28;21150;-60
2021/04/03 02:10:17;;;;;;;11.47;4.33;;;;;;;5.63;65.42;101084.19;5080213;28;20491;-60
2021/04/03 02:12:45;;;;;;;15.87;3.23;;;;;;;5.52;65.72;101086.63;5082633;28;20999;-60
2021/04/03 02:15:13;;;;;;;7.90;3.60;;;;;;;5.70;65.36;101081.22;5081232;28;20917;-60
2021/04/03 02:17:40;;;;;;;12.90;3.80;;;;;;;5.74;65.18;101088.03;5084375;28;20470;-60
2021/04/03 02:20:09;;;;;;;17.20;4.27;;;;;;;5.64;65.41;101087.69;5080950;28;20440;-60
2021/04/03 02:22:36;;;;;;;10.60;3.40;;;;;;;5.63;65.32;101097.47;5082651;28;20498;-60
2021/04/03 02:25:05;;;;;;;19.93;4.80;;;;;;;5.70;64.91;101092.66;5082706;28;20459;-60
2021/04/03 02:27:32;;;;;;;10.43;3.90;;;;;;;5.73;64.74;101095.16;5080559;28;20468;-60
2021/04/03 02:30:11;;;;;;;18.37;4.03;;;;;;;5.59;64.83;101095.06;5087711;28;20536;-60
2021/04/03 02:32:38;;;;;;;19.37;3.67;;;;;;;5.43;65.35;101095.97;5100916;28;20519;-60
2021/04/03 02:35:05;;;;;;;8.83;3.70;;;;;;;5.33;65.62;101107.16;5093686;28;20472;-61
2021/04/03 02:37:32;;;;;;;11.13;3.00;;;;;;;5.22;66.13;101098.00;5081328;28;20463;-60
2021/04/03 02:39:58;;;;;;;11.77;2.83;;;;;;;5.03;66.68;101092.00;5081933;28;20432;-60
2021/04/03 02:42:25;;;;;;;14.83;4.27;;;;;;;4.95;66.97;101091.56;5080887;28;20475;-60
2021/04/03 02:44:55;;;;;;;19.13;3.37;;;;;;;4.74;67.53;101097.13;5082245;28;20491;-60
2021/04/03 02:47:23;;;;;;;17.20;3.20;;;;;;;4.67;67.61;101114.25;5080436;28;20491;-60
2021/04/03 02:49:54;;;;;;;9.60;2.90;;;;;;;4.78;67.30;101109.25;5088680;28;20575;-60
2021/04/03 02:52:20;;;;;;;15.90;3.70;;;;;;;4.65;68.15;101118.78;5100843;28;20478;-60
2021/04/03 02:54:48;;;;;;;15.50;4.00;;;;;;;4.44;68.75;101116.31;5061641;28;20477;-60
2021/04/03 02:57:15;;;;;;;12.77;3.30;;;;;;;4.63;68.29;101123.31;5063552;28;20502;-60
2021/04/03 02:59:45;;;;;;;16.27;4.93;;;;;;;4.58;68.48;101120.03;5075245;28;20470;-61
2021/04/03 03:02:15;;;;;;;14.67;3.50;;;;;;;4.69;68.24;101123.00;5096428;28;20475;-60
2021/04/03 03:04:42;;;;;;;4.80;3.00;;;;;;;4.71;67.91;101129.06;5101539;28;20427;-60
2021/04/03 03:07:09;;;;;;;17.30;3.67;;;;;;;4.67;67.71;101127.50;5083333;28;20533;-60
2021/04/03 03:09:36;;;;;;;12.53;3.40;;;;;;;4.69;67.58;101123.00;5080238;28;20468;-60
2021/04/03 03:12:04;;;;;;;12.20;4.20;;;;;;;4.75;67.58;101129.75;5095443;28;20474;-60
2021/04/03 03:14:31;;;;;;;10.57;3.50;;;;;;;4.66;67.71;101131.09;5096910;28;20448;-60
2021/04/03 03:16:58;;;;;;;21.73;3.40;;;;;;;4.71;67.58;101126.41;5077946;28;20924;-61
2021/04/03 03:19:24;;;;;;;10.90;3.70;;;;;;;4.76;67.31;101131.47;5086281;28;20518;-61
2021/04/03 03:21:51;;;;;;;13.70;4.40;;;;;;;4.63;67.42;101129.44;5100215;28;20497;-60
2021/04/03 03:24:17;;;;;;;8.90;3.60;;;;;;;4.61;67.75;101123.38;5097177;28;20474;-60
2021/04/03 03:26:46;;;;;;;13.73;3.20;;;;;;;4.52;67.91;101123.88;5068540;28;20829;-61
2021/04/03 03:29:14;;;;;;;18.63;3.43;;;;;;;4.61;67.51;101115.44;5073587;28;20990;-61
2021/04/03 03:31:41;;;;;;;17.80;4.00;;;;;;;4.36;68.21;101109.69;5082993;28;20881;-59
2021/04/03 03:34:07;;;;;;;11.33;3.43;;;;;;;4.44;68.38;101108.38;5089649;28;20443;-60
2021/04/03 03:36:35;;;;;;;18.67;3.40;;;;;;;4.35;68.34;101100.91;5103795;28;20471;-60
2021/04/03 03:39:03;;;;;;;15.90;3.90;;;;;;;4.55;67.64;101099.88;5089590;28;20447;-61
2021/04/03 03:41:30;;;;;;;18.67;3.80;;;;;;;4.44;67.77;101103.06;5098186;28;20487;-60
2021/04/03 03:43:57;;;;;;;18.43;3.67;;;;;;;4.34;68.42;101099.22;5077694;28;20447;-60
2021/04/03 03:46:24;;;;;;;16.97;4.47;;;;;;;4.46;67.93;101105.63;5102875;28;20467;-60
2021/04/03 03:48:50;;;;;;;14.87;3.07;;;;;;;4.48;67.63;101099.34;5088875;28;20475;-59
2021/04/03 03:51:16;;;;;;;17.37;3.87;;;;;;;4.46;67.61;101103.00;5083347;28;20506;-61
2021/04/03 03:53:42;;;;;;;10.67;3.87;;;;;;;4.53;67.32;101114.97;5083397;28;20447;-60
2021/04/03 03:56:08;;;;;;;11.90;4.23;;;;;;;4.41;67.70;101113.84;5083061;28;20499;-61
2021/04/03 03:58:34;;;;;;;10.40;3.47;;;;;;;4.45;67.73;101115.38;5094100;28;20450;-61
2021/04/03 04:01:01;;;;;;;15.07;3.37;;;;;;;4.57;67.64;101121.00;5100569;28;20902;-60
2021/04/03 04:03:28;;;;;;;32.20;4.40;;;;;;;4.68;67.29;101130.06;5089622;28;20474;-60
2021/04/03 04:05:54;;;;;;;13.50;3.60;;;;;;;4.70;66.95;101132.63;5082206;28;20479;-61
2021/04/03 04:08:21;;;;;;;16.03;4.57;;;;;;;4.83;66.76;101130.19;5077888;28;20457;-60
2021/04/03 04:10:47;;;;;;;10.43;3.57;;;;;;;4.83;66.66;101131.06;5062825;28;20473;-60
2021/04/03 04:13:13;;;;;;;12.20;3.17;;;;;;;4.79;66.67;101133.94;5075180;28;20456;-61
2021/04/03 04:15:39;;;;;;;16.30;3.73;;;;;;;4.80;66.59;101127.72;5092289;28;20499;-61
2021/04/03 04:18:06;;;;;;;8.33;2.93;;;;;;;4.64;66.99;101125.88;5087062;28;20553;-61
2021/04/03 04:20:33;;;;;;;13.03;3.60;;;;;;;4.57;67.66;101129.78;5080032;28;20469;-60
2021/04/03 04:22:59;;;;;;;17.30;3.50;;;;;;;4.66;67.33;101126.63;5074372;28;20452;-60
2021/04/03 04:25:25;;;;;;;17.47;4.27;;;;;;;4.76;67.11;101142.06;5078486;28;20465;-60
2021/04/03 04:27:51;;;;;;;19.60;4.10;;;;;;;4.78;67.04;101142.84;5100962;28;20451;-60
2021/04/03 04:30:18;;;;;;;11.60;2.90;;;;;;;4.77;67.11;101144.59;5094054;28;20491;-60
2021/04/03 04:32:45;;;;;;;7.83;3.37;;;;;;;4.86;67.12;101156.50;5092577;28;20456;-60
2021/04/03 04:35:13;;;;;;;13.37;3.53;;;;;;;5.08;66.57;101158.88;5083543;28;20448;-61
2021/04/03 04:37:40;;;;;;;12.13;4.07;;;;;;;5.15;66.37;101154.94;5082783;28;20468;-60
2021/04/03 04:40:08;;;;;;;16.10;4.00;;;;;;;5.30;66.07;101168.34;5081693;28;20451;-61
2021/04/03 04:42:34;;;;;;;22.53;3.80;;;;;;;5.44;65.53;101156.00;5062723;28;20437;-60
2021/04/03 04:45:01;;;;;;;17.63;4.37;;;;;;;5.48;65.49;101172.59;5085794;28;20443;-60
2021/04/03 04:47:27;;;;;;;17.90;3.90;;;;;;;5.47;65.63;101163.78;5099920;28;20479;-60
2021/04/03 04:49:53;;;;;;;17.80;4.47;;;;;;;5.64;65.40;101167.28;5101602;28;21014;-61
2021/04/03 04:52:20;;;;;;;18.80;4.57;;;;;;;5.85;64.66;101175.84;5095186;28;20510;-59
2021/04/03 04:54:47;;;;;;;17.23;3.97;;;;;;;5.91;64.76;101175.50;5079731;28;20435;-60
2021/04/03 04:57:13;;;;;;;13.57;3.90;;;;;;;5.86;64.96;101174.91;5077836;28;20490;-60
2021/04/03 04:59:39;;;;;;;17.77;6.77;;;;;;;5.85;64.79;101187.31;5087271;28;20459;-60
2021/04/03 05:02:06;;;;;;;18.53;3.50;;;;;;;5.92;65.01;101184.31;5086030;28;20843;-60
2021/04/03 05:04:32;;;;;;;16.47;5.33;;;;;;;5.82;65.58;101186.63;5088134;28;20456;-61
2021/04/03 05:06:58;;;;;;;21.63;4.60;;;;;;;5.97;65.38;101201.72;5083968;28;20497;-60
2021/04/03 05:09:24;;;;;;;16.83;4.00;;;;;;;6.03;65.23;101201.34;5085599;28;20475;-60
2021/04/03 05:11:51;;;;;;;17.40;4.73;;;;;;;5.98;65.22;101200.78;5096178;28;20479;-61
2021/04/03 05:14:17;;;;;;;21.10;5.07;;;;;;;6.17;64.94;101199.72;5086923;28;20451;-60
2021/04/03 05:16:44;;;;;;;16.77;4.30;;;;;;;6.34;64.87;101199.59;5081252;28;20480;-61
2021/04/03 05:19:10;;;;;;;16.17;4.00;;;;;;;6.37;64.51;101204.72;5082957;28;20447;-60
2021/04/03 05:21:36;;;;;;;17.47;4.50;;;;;;;6.21;64.99;101198.59;5081684;28;20480;-60
2021/04/03 05:24:02;;;;;;;18.10;5.40;;;;;;;6.44;64.65;101201.69;5092302;28;20474;-60
2021/04/03 05:26:28;;;;;;;30.00;5.60;;;;;;;6.51;64.26;101197.72;5079133;28;20508;-60
2021/04/03 05:28:55;;;;;;;17.33;4.37;;;;;;;6.44;65.07;101209.66;5073684;28;20528;-60
2021/04/03 05:31:22;;;;;;;19.67;5.90;;;;;;;5.88;67.38;101207.50;5091028;28;20868;-60
2021/04/03 05:33:48;;;;;;;14.20;5.40;;;;;;;6.05;67.04;101211.91;5077764;28;20546;-61
2021/04/03 05:36:15;;;;;;;31.17;6.70;;;;;;;6.15;67.12;101207.78;5081225;28;20500;-60
2021/04/03 05:38:41;;;;;;;22.13;7.33;;;;;;;6.03;67.42;101213.78;5081572;28;20817;-60
2021/04/03 05:41:07;;;;;;;18.27;5.50;;;;;;;5.80;68.82;101215.06;5081568;28;21102;-61
2021/04/03 05:43:34;;;;;;;36.70;7.33;;;;;;;6.30;67.01;101213.13;5087805;28;20459;-60
2021/04/03 05:46:02;;;;;;;19.43;5.83;;;;;;;6.45;66.55;101217.53;5098525;28;20504;-60
2021/04/03 05:48:29;;;;;;;23.73;6.17;;;;;;;6.27;67.16;101224.81;5071528;28;20517;-60
2021/04/03 05:50:57;;;;;;;20.43;6.07;;;;;;;6.27;67.37;101229.22;5081301;28;20471;-61
2021/04/03 05:53:23;;;;;;;33.23;6.90;;;;;;;6.38;67.04;101225.00;5082264;28;20452;-61
2021/04/03 05:55:51;;;;;;;33.13;6.90;;;;;;;6.28;67.31;101230.97;5081019;28;20921;-60
2021/04/03 05:58:18;;;;;;;32.30;7.77;;;;;;;6.56;66.51;101240.81;5096457;28;20485;-61
2021/04/03 06:00:44;;;;;;;24.13;7.27;;;;;;;6.48;66.60;101248.41;5099882;28;20483;-60
2021/04/03 06:03:11;;;;;;;31.70;7.80;;;;;;;6.01;68.26;101253.69;5081269;28;20571;-60
2021/04/03 06:05:38;;;;;;;26.23;8.80;;;;;;;6.07;67.87;101252.47;5078338;28;20468;-60
2021/04/03 06:08:04;;;;;;;26.47;8.30;;;;;;;6.11;68.11;101261.13;5079938;28;20476;-60
2021/04/03 06:10:30;;;;;;;41.10;7.60;;;;;;;6.48;67.19;101270.50;5094358;28;20478;-60
2021/04/03 06:12:57;;;;;;;32.83;7.00;;;;;;;6.49;67.30;101268.69;5081909;28;20471;-60
2021/04/03 06:15:35;;;;;;;24.60;8.00;;;;;;;6.38;67.06;101274.63;5086410;28;20446;-59
2021/04/03 06:18:08;;;;;;;19.43;6.80;;;;;;;6.53;66.55;101276.41;5090169;28;20451;-60
2021/04/03 06:20:37;;;;;;;24.03;6.57;;;;;;;6.49;66.65;101282.84;5085431;28;20517;-60
2021/04/03 06:23:04;;;;;;;24.47;7.43;;;;;;;6.75;66.01;101281.31;5074667;28;20441;-59
2021/04/03 06:25:31;;;;;;;25.93;8.30;;;;;;;6.58;66.31;101279.66;5071544;28;20476;-60
2021/04/03 06:28:05;;;;;;;32.53;7.40;;;;;;;6.35;67.19;101281.00;5079896;28;20443;-60
2021/04/03 06:30:33;;;;;;;26.87;6.77;;;;;;;6.62;67.50;101298.94;5090751;28;20485;-60
2021/04/03 06:33:13;;;;;;;14.60;7.27;;;;;;;6.94;65.64;101309.47;5083096;28;20971;-60
2021/04/03 06:35:40;;;;;;;24.03;7.87;;;;;;;7.27;66.85;101308.38;5080795;28;20514;-60
2021/04/03 06:38:23;;;;;;;18.13;6.70;;;;;;;7.79;63.97;101318.47;5079584;28;20952;-60
2021/04/03 06:40:49;;;;;;;25.33;8.53;;;;;;;7.85;62.26;101314.59;5086466;28;20475;-60
2021/04/03 06:43:16;;;;;;;31.23;8.80;;;;;;;7.23;63.77;101313.03;5100417;28;20904;-60
2021/04/03 06:45:44;;;;;;;23.93;7.77;;;;;;;6.89;65.02;101323.03;5097549;28;20479;-60
2021/04/03 06:48:12;;;;;;;27.17;7.80;;;;;;;7.08;64.68;101314.84;5090652;28;20459;-60
2021/04/03 06:50:41;;;;;;;28.23;7.43;;;;;;;7.12;64.34;101319.00;5078298;28;20492;-60
2021/04/03 06:53:08;;;;;;;33.47;7.43;;;;;;;6.90;65.08;101323.88;5081060;28;20459;-60
2021/04/03 06:55:35;;;;;;;29.13;7.50;;;;;;;7.23;64.32;101329.00;5083749;28;20848;-60
2021/04/03 06:58:03;;;;;;;19.43;6.80;;;;;;;7.53;63.76;101344.91;5092943;28;20961;-60
2021/04/03 07:00:31;;;;;;;24.17;7.47;;;;;;;7.47;63.82;101342.63;5083387;28;20478;-60
2021/04/03 07:02:59;;;;;;;32.33;9.13;;;;;;;7.60;63.40;101344.53;5076962;28;20439;-60
2021/04/03 07:05:31;;;;;;;18.20;6.20;;;;;;;7.67;63.29;101346.72;5080286;28;21045;-62
2021/04/03 07:08:00;;;;;;;22.80;6.70;;;;;;;7.35;64.01;101344.22;5083198;28;20543;-59
2021/04/03 07:10:27;;;;;;;22.57;6.63;;;;;;;7.63;63.88;101360.31;5095164;28;20475;-59
2021/04/03 07:12:54;;;;;;;22.07;7.40;;;;;;;7.61;63.40;101355.06;5103960;28;20453;-60
2021/04/03 07:15:22;;;;;;;20.37;7.83;;;;;;;6.84;65.16;101356.13;5101470;28;20951;-60
2021/04/03 07:17:50;;;;;;;23.87;9.20;;;;;;;7.45;63.92;101367.63;5076412;28;20457;-60
2021/04/03 07:20:17;;;;;;;22.17;6.73;;;;;;;7.71;63.05;101372.19;5103136;28;20451;-60
2021/04/03 07:22:45;;;;;;;32.57;8.33;;;;;;;7.76;62.66;101361.28;5091597;28;20451;-60
2021/04/03 07:25:13;;;;;;;16.60;7.37;;;;;;;7.70;62.69;101365.16;5082825;28;20462;-60
2021/04/03 07:27:45;;;;;;;18.93;5.90;;;;;;;8.04;61.87;101372.88;5082946;28;20455;-61
2021/04/03 07:30:13;;;;;;;18.87;6.60;;;;;;;8.21;61.70;101383.31;5081932;28;20464;-60
2021/04/03 07:32:41;;;;;;;20.47;7.40;;;;;;;7.84;62.01;101379.41;5082913;28;20443;-60
2021/04/03 07:35:21;;;;;;;35.17;9.60;;;;;;;7.86;62.04;101381.06;5078256;28;20440;-61
2021/04/03 07:37:49;;;;;;;24.13;8.10;;;;;;;8.08;61.95;101385.88;5081182;28;20478;-61
2021/04/03 07:40:37;;;;;;;18.67;7.40;;;;;;;7.94;62.18;101398.34;5082636;28;20447;-61
2021/04/03 07:43:04;;;;;;;22.83;7.30;;;;;;;8.19;61.61;101400.31;5082460;28;20934;-61
2021/04/03 07:45:46;;;;;;;24.80;7.80;;;;;;;8.13;60.78;101401.56;5081580;28;20471;-61
2021/04/03 07:48:50;;;;;;;26.33;8.03;;;;;;;8.34;60.74;101398.50;5082410;28;20459;-61
2021/04/03 07:51:46;;;;;;;30.30;7.77;;;;;;;8.05;61.30;101399.38;5082089;28;20888;-60
2021/04/03 07:54:30;;;;;;;23.90;7.17;;;;;;;8.23;61.15;101405.38;5082252;28;20494;-61
2021/04/03 07:57:03;;;;;;;24.37;7.97;;;;;;;8.23;60.95;101407.19;5080912;28;20844;-60
2021/04/03 07:59:54;;;;;;;15.60;6.97;;;;;;;7.78;61.79;101409.06;5081994;28;20448;-61
2021/04/03 08:02:25;;;;;;;23.60;7.27;;;;;;;7.90;61.89;101405.69;5069040;28;20491;-61
2021/04/03 08:04:52;;;;;;;28.80;7.73;;;;;;;7.81;61.72;101409.75;5074380;28;20518;-61
2021/04/03 08:07:20;;;;;;;19.00;7.60;;;;;;;7.90;61.68;101424.31;5078675;28;20498;-60
2021/04/03 08:09:47;;;;;;;26.07;8.47;;;;;;;8.06;61.46;101418.91;5081553;28;20484;-61
2021/04/03 08:12:14;;;;;;;23.23;10.10;;;;;;;8.39;60.78;101433.72;5076546;28;20476;-60
2021/04/03 08:14:42;;;;;;;20.43;9.90;;;;;;;9.05;59.11;101427.63;5061197;28;20526;-61
2021/04/03 08:17:10;;;;;;;19.67;8.40;;;;;;;8.98;57.95;101431.66;5074992;28;20483;-60
2021/04/03 08:19:38;;;;;;;21.50;7.97;;;;;;;9.18;57.43;101426.81;5078806;28;20451;-62
2021/04/03 08:22:08;;;;;;;20.00;8.60;;;;;;;9.11;58.14;101436.19;5076282;28;20472;-62
2021/04/03 08:24:35;;;;;;;19.33;7.73;;;;;;;8.83;58.39;101436.19;5080227;28;20531;-62
2021/04/03 08:27:01;;;;;;;19.83;8.27;;;;;;;8.91;58.66;101438.38;5079745;28;20492;-62
2021/04/03 08:29:30;;;;;;;27.77;8.80;;;;;;;9.35;57.82;101441.72;5079656;28;20897;-63
2021/04/03 08:31:58;;;;;;;22.57;8.83;;;;;;;9.43;57.15;101431.38;5071353;28;20504;-61
2021/04/03 08:34:25;;;;;;;21.53;7.80;;;;;;;9.76;56.41;101430.88;5067898;28;20449;-62
2021/04/03 08:36:52;;;;;;;24.33;7.97;;;;;;;9.82;55.99;101437.59;5075352;28;20504;-62
2021/04/03 08:39:21;;;;;;;19.73;8.80;;;;;;;9.42;56.50;101443.00;5076209;28;20448;-63
2021/04/03 08:41:50;;;;;;;16.43;7.00;;;;;;;9.88;56.42;101442.53;5059608;28;20476;-62
2021/04/03 08:44:18;;;;;;;18.77;7.50;;;;;;;9.71;56.24;101448.19;5074719;28;20452;-62
2021/04/03 08:46:47;;;;;;;19.23;7.50;;;;;;;9.82;55.89;101434.91;5075943;28;20477;-61
2021/04/03 08:49:28;;;;;;;13.80;7.30;;;;;;;10.06;55.31;101439.53;5079829;28;20499;-61
2021/04/03 08:51:54;;;;;;;17.70;6.67;;;;;;;10.44;54.82;101433.31;5072642;28;20494;-61
2021/04/03 08:54:21;;;;;;;14.47;7.33;;;;;;;10.11;54.66;101432.03;5083351;28;20444;-60
2021/04/03 08:56:49;;;;;;;16.30;7.10;;;;;;;10.77;52.93;101437.16;5085746;28;20483;-61
2021/04/03 08:59:16;;;;;;;14.10;6.50;;;;;;;11.37;50.68;101438.03;5085797;28;20483;-62
2021/04/03 09:01:46;;;;;;;21.23;7.43;;;;;;;11.10;51.06;101436.47;5086971;28;20511;-63
2021/04/03 09:04:13;;;;;;;18.93;7.37;;;;;;;11.08;51.72;101435.75;5086459;28;20448;-60
2021/04/03 09:06:45;;;;;;;15.40;6.50;;;;;;;11.00;51.45;101430.09;5080309;28;20490;-62
2021/04/03 09:09:16;;;;;;;19.83;7.00;;;;;;;11.71;50.04;101430.94;5082193;28;20514;-60
2021/04/03 09:11:55;;;;;;;21.77;7.90;;;;;;;11.26;52.02;101431.66;5085626;28;20506;-62
2021/04/03 09:14:29;;;;;;;15.60;5.80;;;;;;;12.42;48.46;101425.41;5086912;28;20509;-61
2021/04/03 09:16:58;;;;;;;18.33;6.53;;;;;;;13.21;44.75;101435.06;5077898;28;20483;-61
2021/04/03 09:19:26;;;;;;;10.10;6.03;;;;;;;14.22;44.02;101421.00;5087142;28;20448;-63
2021/04/03 09:21:53;;;;;;;14.90;6.50;;;;;;;14.59;42.88;101419.59;5085049;28;20482;-62
2021/04/03 09:24:38;;;;;;;22.80;6.60;;;;;;;13.71;45.19;101428.13;5088012;28;20503;-63
2021/04/03 09:27:13;;;;;;;14.93;6.63;;;;;;;13.81;44.07;101424.63;5088242;28;20558;-62
2021/04/03 09:29:40;;;;;;;10.57;5.43;;;;;;;14.95;42.18;101419.94;5085304;28;20470;-61
2021/04/03 09:32:10;;;;;;;14.97;6.67;;;;;;;16.37;38.58;101423.66;5086104;28;20475;-64
2021/04/03 09:34:37;;;;;;;10.93;5.60;;;;;;;18.41;35.31;101414.69;5088479;28;20435;-62
2021/04/03 09:37:20;;;;;;;16.43;5.80;;;;;;;18.21;34.28;101414.09;5087375;28;20553;-63
2021/04/03 09:39:48;;;;;;;11.80;5.07;;;;;;;18.50;33.08;101408.28;5083749;28;20478;-62
2021/04/03 09:42:16;;;;;;;10.77;5.73;;;;;;;17.52;35.13;101414.00;5086272;28;20483;-62
2021/04/03 09:44:43;;;;;;;16.23;5.90;;;;;;;16.96;35.97;101416.06;5086985;28;20448;-62
2021/04/03 09:47:11;;;;;;;11.67;5.57;;;;;;;17.58;34.32;101412.53;5080028;28;20503;-61
2021/04/03 09:49:38;;;;;;;16.40;5.77;;;;;;;18.90;32.30;101409.44;5088683;28;20474;-62
2021/04/03 09:52:06;;;;;;;10.23;5.93;;;;;;;18.84;32.30;101407.41;5082208;28;20927;-63
2021/04/03 09:54:33;;;;;;;15.17;5.67;;;;;;;17.22;35.38;101409.88;5085524;28;20452;-62
2021/04/03 09:57:01;;;;;;;19.77;6.33;;;;;;;14.22;41.45;101412.94;5086397;28;20499;-62
2021/04/03 09:59:29;;;;;;;11.40;5.37;;;;;;;12.28;46.78;101417.63;5079124;28;20451;-62
2021/04/03 10:01:55;;;;;;;13.37;6.13;;;;;;;12.39;47.02;101421.16;5083808;28;20479;-62
2021/04/03 10:04:23;;;;;;;15.27;6.77;;;;;;;12.38;46.69;101426.63;5074762;28;20526;-62
2021/04/03 10:06:51;;;;;;;13.40;6.20;;;;;;;14.96;41.52;101419.78;5079709;28;20480;-62
2021/04/03 10:09:18;;;;;;;15.93;5.40;;;;;;;17.28;35.87;101420.91;5078937;28;20518;-61
2021/04/03 10:11:44;;;;;;;17.07;5.20;;;;;;;17.38;35.31;101404.59;5071305;28;20498;-60
2021/04/03 10:14:11;;;;;;;12.93;5.73;;;;;;;17.83;34.54;101408.13;5067328;28;20876;-60
2021/04/03 10:16:38;;;;;;;11.57;5.47;;;;;;;17.62;34.49;101409.34;5084798;28;20475;-62
2021/04/03 10:19:05;;;;;;;17.80;6.07;;;;;;;18.00;34.37;101415.38;5089491;28;20459;-60
2021/04/03 10:21:32;;;;;;;11.77;6.50;;;;;;;18.85;32.77;101419.91;5060065;28;20484;-62
2021/04/03 10:23:59;;;;;;;12.53;5.70;;;;;;;17.69;34.23;101413.13;5071690;28;20524;-63
2021/04/03 10:26:26;;;;;;;16.20;5.70;;;;;;;18.20;33.95;101412.41;5074411;28;20823;-61
2021/04/03 10:28:52;;;;;;;11.50;5.10;;;;;;;19.49;30.72;101425.56;5077007;28;20536;-61
2021/04/03 10:31:19;;;;;;;9.77;4.70;;;;;;;19.92;30.61;101420.78;5077046;28;20482;-62
2021/04/03 10:33:46;;;;;;;14.20;4.67;;;;;;;18.75;32.24;101416.50;5079163;28;20440;-62
2021/04/03 10:36:12;;;;;;;9.13;4.70;;;;;;;19.08;31.45;101422.84;5074680;28;20889;-62
2021/04/03 10:38:39;;;;;;;8.80;4.43;;;;;;;19.77;30.92;101416.22;5074917;28;20474;-62
2021/04/03 10:41:07;;;;;;;10.53;4.77;;;;;;;19.01;31.87;101408.28;5082772;28;21122;-60
2021/04/03 10:43:34;;;;;;;8.73;4.47;;;;;;;18.83;31.31;101413.00;5082989;28;20450;-61
2021/04/03 10:46:01;;;;;;;13.03;4.17;;;;;;;19.18;31.25;101412.69;5091374;28;20508;-61
2021/04/03 10:48:27;;;;;;;11.90;4.13;;;;;;;19.53;30.08;101407.94;5084848;28;20515;-61
2021/04/03 10:50:54;;;;;;;13.77;3.90;;;;;;;18.82;31.25;101412.16;5072416;28;20501;-62
2021/04/03 10:53:20;;;;;;;10.70;4.70;;;;;;;18.87;33.26;101407.06;5072083;28;20456;-62
2021/04/03 10:55:47;;;;;;;12.80;5.03;;;;;;;18.46;32.57;101404.22;5084514;28;21039;-62
2021/04/03 10:58:13;;;;;;;13.67;6.20;;;;;;;15.77;37.78;101405.13;5091568;28;21066;-62
2021/04/03 11:00:40;;;;;;;15.30;5.53;;;;;;;16.18;37.47;101411.94;5088983;28;20995;-62
2021/04/03 11:03:06;;;;;;;9.90;5.80;;;;;;;16.70;36.52;101413.22;5076844;28;20989;-61
2021/04/03 11:05:33;;;;;;;11.27;5.27;;;;;;;16.49;36.66;101408.09;5084736;28;20486;-61
2021/04/03 11:07:59;;;;;;;15.03;6.07;;;;;;;16.71;35.81;101412.22;5085077;28;20981;-60
2021/04/03 11:10:26;;;;;;;10.23;5.73;;;;;;;16.98;34.44;101403.25;5083430;28;20467;-61
2021/04/03 11:12:53;;;;;;;12.23;4.67;;;;;;;17.75;32.86;101399.97;5083701;28;20447;-60
2021/04/03 11:15:19;;;;;;;10.67;4.90;;;;;;;18.11;32.01;101397.16;5081219;28;21011;-61
2021/04/03 11:17:45;;;;;;;10.10;4.03;;;;;;;17.98;32.51;101387.59;5078432;28;20455;-61
2021/04/03 11:20:13;;;;;;;12.70;5.23;;;;;;;17.04;34.65;101389.09;5079489;28;20515;-61
2021/04/03 11:22:39;;;;;;;13.67;5.10;;;;;;;16.58;35.22;101393.69;5078518;28;20458;-61
2021/04/03 11:25:07;;;;;;;12.77;5.03;;;;;;;16.69;35.15;101396.16;5080822;28;20451;-60
2021/04/03 11:27:33;;;;;;;12.57;4.10;;;;;;;16.33;36.38;101395.25;5085898;28;20475;-61
2021/04/03 11:30:12;;;;;;;7.83;4.93;;;;;;;17.81;33.69;101397.47;5080797;28;20487;-63